createdAt,value
2019-02-24T00:02:25.550Z,16.12
2019-02-24T00:04:52.866Z,15.40
2019-02-24T00:07:20.172Z,15.53
2019-02-24T00:09:47.475Z,15.60
2019-02-24T00:12:14.793Z,15.32
2019-02-24T00:14:42.113Z,17.95
2019-02-24T00:17:09.436Z,15.78
2019-02-24T00:19:36.748Z,17.20
2019-02-24T00:22:04.034Z,17.25
2019-02-24T00:24:31.368Z,17.50
2019-02-24T00:26:58.650Z,18.12
2019-02-24T00:29:25.976Z,17.70
2019-02-24T00:31:53.286Z,21.57
2019-02-24T00:34:20.596Z,21.55
2019-02-24T00:36:47.896Z,21.23
2019-02-24T00:39:15.204Z,21.05
2019-02-24T00:41:42.503Z,21.65
2019-02-24T00:44:09.827Z,21.05
2019-02-24T00:46:37.116Z,19.60
2019-02-24T00:49:04.431Z,20.90
2019-02-24T00:51:31.744Z,20.57
2019-02-24T00:53:59.066Z,19.85
2019-02-24T00:56:26.363Z,19.98
2019-02-24T00:58:53.661Z,19.07
2019-02-24T01:01:20.973Z,20.90
2019-02-24T01:03:48.286Z,21.90
2019-02-24T01:06:15.599Z,24.50
2019-02-24T01:08:42.927Z,22.02
2019-02-24T01:11:10.242Z,20.20
2019-02-24T01:13:37.561Z,22.35
2019-02-24T01:16:04.869Z,22.62
2019-02-24T01:18:32.173Z,20.75
2019-02-24T01:20:59.456Z,20.62
2019-02-24T01:23:26.779Z,21.07
2019-02-24T01:25:54.074Z,21.60
2019-02-24T01:28:25.213Z,20.72
2019-02-24T01:30:50.351Z,19.85
2019-02-24T01:33:17.645Z,19.80
2019-02-24T01:35:44.967Z,20.05
2019-02-24T01:38:12.303Z,20.40
2019-02-24T01:40:39.593Z,20.68
2019-02-24T01:43:06.921Z,20.37
2019-02-24T01:45:34.238Z,21.05
2019-02-24T01:48:01.530Z,20.27
2019-02-24T01:50:28.870Z,20.35
2019-02-24T01:52:56.184Z,20.80
2019-02-24T01:55:23.490Z,21.82
2019-02-24T01:57:50.783Z,21.20
2019-02-24T02:00:18.105Z,22.05
2019-02-24T02:02:45.400Z,21.77
2019-02-24T02:05:12.731Z,22.82
2019-02-24T02:07:40.021Z,22.52
2019-02-24T02:10:07.346Z,21.27
2019-02-24T02:12:34.654Z,21.85
2019-02-24T02:15:01.980Z,22.80
2019-02-24T02:17:29.275Z,21.82
2019-02-24T02:19:56.594Z,21.10
2019-02-24T02:22:23.898Z,21.55
2019-02-24T02:24:51.227Z,22.10
2019-02-24T02:27:18.521Z,21.12
2019-02-24T02:29:45.831Z,22.35
2019-02-24T02:32:13.159Z,21.40
2019-02-24T02:34:40.437Z,20.52
2019-02-24T02:37:07.766Z,23.07
2019-02-24T02:39:35.096Z,21.85
2019-02-24T02:42:02.404Z,22.50
2019-02-24T02:44:29.691Z,19.85
2019-02-24T02:46:57.009Z,20.55
2019-02-24T02:49:24.302Z,21.77
2019-02-24T02:51:51.592Z,21.02
2019-02-24T02:54:18.910Z,19.70
2019-02-24T02:56:46.230Z,19.90
2019-02-24T02:59:13.536Z,19.90
2019-02-24T03:01:40.832Z,20.00
2019-02-24T03:04:08.122Z,18.57
2019-02-24T03:06:49.034Z,19.25
2019-02-24T03:09:16.337Z,20.60
2019-02-24T03:11:43.652Z,21.35
2019-02-24T03:14:10.950Z,19.85
2019-02-24T03:16:38.263Z,20.90
2019-02-24T03:19:05.558Z,20.55
2019-02-24T03:21:32.878Z,19.75
2019-02-24T03:24:00.202Z,22.10
2019-02-24T03:26:27.510Z,21.02
2019-02-24T03:29:03.587Z,23.15
2019-02-24T03:31:23.782Z,21.45
2019-02-24T03:33:51.098Z,22.00
2019-02-24T03:36:18.414Z,21.27
2019-02-24T03:38:45.717Z,21.42
2019-02-24T03:41:13.032Z,23.05
2019-02-24T03:43:40.326Z,22.52
2019-02-24T03:46:07.658Z,20.23
2019-02-24T03:48:34.953Z,22.27
2019-02-24T03:51:02.261Z,23.38
2019-02-24T03:53:29.577Z,21.87
2019-02-24T03:55:57.681Z,22.15
2019-02-24T03:58:25.015Z,21.55
2019-02-24T04:00:52.307Z,20.02
2019-02-24T04:03:19.609Z,22.32
2019-02-24T04:05:46.923Z,22.25
2019-02-24T04:08:14.236Z,21.80
2019-02-24T04:10:41.531Z,21.82
2019-02-24T04:13:08.998Z,22.15
2019-02-24T04:15:36.307Z,22.13
2019-02-24T04:18:03.608Z,22.13
2019-02-24T04:20:30.922Z,22.15
2019-02-24T04:22:58.218Z,22.60
2019-02-24T04:25:25.512Z,23.30
2019-02-24T04:27:52.831Z,22.75
2019-02-24T04:30:20.121Z,22.22
2019-02-24T04:32:47.424Z,22.35
2019-02-24T04:35:14.814Z,21.37
2019-02-24T04:37:42.174Z,21.35
2019-02-24T04:40:09.466Z,21.87
2019-02-24T04:42:36.773Z,21.40
2019-02-24T04:45:04.657Z,21.55
2019-02-24T04:47:31.964Z,24.70
2019-02-24T04:49:59.244Z,22.00
2019-02-24T04:52:26.579Z,23.12
2019-02-24T04:54:53.885Z,22.40
2019-02-24T04:57:21.189Z,23.52
2019-02-24T04:59:48.506Z,22.40
2019-02-24T05:02:15.805Z,23.65
2019-02-24T05:04:43.102Z,22.22
2019-02-24T05:07:10.424Z,22.07
2019-02-24T05:09:37.741Z,23.55
2019-02-24T05:12:05.038Z,22.17
2019-02-24T05:14:32.354Z,21.12
2019-02-24T05:16:59.666Z,22.62
2019-02-24T05:19:26.945Z,20.45
2019-02-24T05:21:54.266Z,21.55
2019-02-24T05:24:21.577Z,20.75
2019-02-24T05:26:48.881Z,20.92
2019-02-24T05:29:16.172Z,21.37
2019-02-24T05:31:43.485Z,22.90
2019-02-24T05:34:10.791Z,22.67
2019-02-24T05:36:38.102Z,21.82
2019-02-24T05:39:05.411Z,21.20
2019-02-24T05:41:32.707Z,20.70
2019-02-24T05:44:00.032Z,21.90
2019-02-24T05:46:27.317Z,22.85
2019-02-24T05:48:54.619Z,22.13
2019-02-24T05:51:21.932Z,20.95
2019-02-24T05:53:49.225Z,21.57
2019-02-24T05:56:16.550Z,21.40
2019-02-24T05:58:43.838Z,21.97
2019-02-24T06:01:11.163Z,22.40
2019-02-24T06:03:38.459Z,22.67
2019-02-24T06:06:05.752Z,21.07
2019-02-24T06:08:33.075Z,21.40
2019-02-24T06:11:00.360Z,21.60
2019-02-24T06:13:27.681Z,22.32
2019-02-24T06:15:54.991Z,21.85
2019-02-24T06:18:22.292Z,21.80
2019-02-24T06:20:49.590Z,22.02
2019-02-24T06:23:16.901Z,22.30
2019-02-24T06:25:44.201Z,21.60
2019-02-24T06:28:11.489Z,22.85
2019-02-24T06:30:38.819Z,21.45
2019-02-24T06:33:06.108Z,22.15
2019-02-24T06:35:33.439Z,21.80
2019-02-24T06:38:00.736Z,21.20
2019-02-24T06:40:28.031Z,21.35
2019-02-24T06:42:55.364Z,21.97
2019-02-24T06:45:22.665Z,20.00
2019-02-24T06:47:49.967Z,20.92
2019-02-24T06:50:17.301Z,22.32
2019-02-24T06:52:44.594Z,20.62
2019-02-24T06:55:11.890Z,22.20
2019-02-24T06:57:39.210Z,22.80
2019-02-24T07:00:14.041Z,21.45
2019-02-24T07:02:37.042Z,21.60
2019-02-24T07:05:05.411Z,21.20
2019-02-24T07:07:32.744Z,20.00
2019-02-24T07:10:00.026Z,21.45
2019-02-24T07:12:27.359Z,21.48
2019-02-24T07:14:54.690Z,19.52
2019-02-24T07:17:21.996Z,20.68
2019-02-24T07:19:49.288Z,19.90
2019-02-24T07:22:16.597Z,19.80
2019-02-24T07:24:43.912Z,18.60
2019-02-24T07:27:11.236Z,20.30
2019-02-24T07:29:38.537Z,19.37
2019-02-24T07:32:05.833Z,19.60
2019-02-24T07:34:33.145Z,19.62
2019-02-24T07:37:00.453Z,20.75
2019-02-24T07:39:27.741Z,18.52
2019-02-24T07:41:55.069Z,18.77
2019-02-24T07:44:22.348Z,18.90
2019-02-24T07:46:49.666Z,19.62
2019-02-24T07:49:16.977Z,18.80
2019-02-24T07:51:44.275Z,19.75
2019-02-24T07:54:11.584Z,18.23
2019-02-24T07:56:38.878Z,19.65
2019-02-24T07:59:06.173Z,19.05
2019-02-24T08:01:33.522Z,18.50
2019-02-24T08:04:00.821Z,18.27
2019-02-24T08:06:28.108Z,17.92
2019-02-24T08:08:55.439Z,19.62
2019-02-24T08:11:22.733Z,17.73
2019-02-24T08:13:50.037Z,19.35
2019-02-24T08:16:17.373Z,18.82
2019-02-24T08:18:49.477Z,18.57
2019-02-24T08:21:13.655Z,17.85
2019-02-24T08:23:40.979Z,18.92
2019-02-24T08:26:08.283Z,17.60
2019-02-24T08:28:35.578Z,18.20
2019-02-24T08:31:02.906Z,16.93
2019-02-24T08:33:30.246Z,17.77
2019-02-24T08:35:57.538Z,16.82
2019-02-24T08:38:24.867Z,17.05
2019-02-24T08:40:52.152Z,15.25
2019-02-24T08:43:19.464Z,17.40
2019-02-24T08:45:46.772Z,15.72
2019-02-24T08:48:14.103Z,15.43
2019-02-24T08:50:41.404Z,15.55
2019-02-24T08:53:08.732Z,16.20
2019-02-24T08:55:36.062Z,16.65
2019-02-24T08:58:09.380Z,17.25
2019-02-24T09:00:36.780Z,16.40
2019-02-24T09:03:04.076Z,14.90
2019-02-24T09:05:31.371Z,14.00
2019-02-24T09:07:58.686Z,15.98
2019-02-24T09:10:26.024Z,14.95
2019-02-24T09:12:53.382Z,16.37
2019-02-24T09:15:20.751Z,17.27
2019-02-24T09:17:48.074Z,16.50
2019-02-24T09:20:15.360Z,16.35
2019-02-24T09:22:42.679Z,17.23
2019-02-24T09:25:09.973Z,15.90
2019-02-24T09:27:37.280Z,15.98
2019-02-24T09:30:06.205Z,16.17
2019-02-24T09:32:33.523Z,15.95
2019-02-24T09:35:00.826Z,15.58
2019-02-24T09:37:28.109Z,15.80
2019-02-24T09:39:55.437Z,14.87
2019-02-24T09:42:22.727Z,16.32
2019-02-24T09:44:50.025Z,14.33
2019-02-24T09:47:17.339Z,13.98
2019-02-24T09:49:44.628Z,15.13
2019-02-24T09:52:11.937Z,14.58
2019-02-24T09:54:39.253Z,13.40
2019-02-24T09:57:06.550Z,13.60
2019-02-24T09:59:33.870Z,13.18
2019-02-24T10:02:01.199Z,13.15
2019-02-24T10:04:28.489Z,10.90
2019-02-24T10:06:55.860Z,10.98
2019-02-24T10:09:23.186Z,10.30
2019-02-24T10:11:50.487Z,11.35
2019-02-24T10:14:17.797Z,10.40
2019-02-24T10:16:45.116Z,10.32
2019-02-24T10:19:12.426Z,10.78
2019-02-24T10:21:39.734Z,11.22
2019-02-24T10:24:07.069Z,10.60
2019-02-24T10:26:34.369Z,10.63
2019-02-24T10:29:01.689Z,8.93
2019-02-24T10:31:28.972Z,10.00
2019-02-24T10:33:56.300Z,11.50
2019-02-24T10:36:23.593Z,10.95
2019-02-24T10:38:50.890Z,9.68
2019-02-24T10:41:18.260Z,9.93
2019-02-24T10:43:45.584Z,11.18
2019-02-24T10:46:12.857Z,9.18
2019-02-24T10:48:40.193Z,10.05
2019-02-24T10:51:07.538Z,9.45
2019-02-24T10:53:34.788Z,9.58
2019-02-24T10:56:02.112Z,8.48
2019-02-24T10:58:34.760Z,9.18
2019-02-24T11:00:58.353Z,8.00
2019-02-24T11:03:25.647Z,8.23
2019-02-24T11:05:52.941Z,8.98
2019-02-24T11:08:20.236Z,9.60
2019-02-24T11:10:47.542Z,9.70
2019-02-24T11:13:14.839Z,9.30
2019-02-24T11:15:42.162Z,9.53
2019-02-24T11:18:09.476Z,9.03
2019-02-24T11:20:36.775Z,10.55
2019-02-24T11:23:04.092Z,10.23
2019-02-24T11:25:31.387Z,9.50
2019-02-24T11:27:58.678Z,9.50
2019-02-24T11:30:26.009Z,9.60
2019-02-24T11:32:53.303Z,11.12
2019-02-24T11:35:20.639Z,10.20
2019-02-24T11:37:47.945Z,11.40
2019-02-24T11:40:16.897Z,12.73
2019-02-24T11:42:44.210Z,12.43
2019-02-24T11:45:11.529Z,11.43
2019-02-24T11:47:38.822Z,11.03
2019-02-24T11:50:09.362Z,10.10
2019-02-24T11:52:36.702Z,9.78
2019-02-24T11:55:03.990Z,8.75
2019-02-24T11:57:31.282Z,9.00
2019-02-24T11:59:58.591Z,8.03
2019-02-24T12:02:33.932Z,8.48
2019-02-24T12:04:54.838Z,8.18
2019-02-24T12:07:22.163Z,7.55
2019-02-24T12:09:49.426Z,8.45
2019-02-24T12:12:16.713Z,8.03
2019-02-24T12:14:44.026Z,7.70
2019-02-24T12:17:11.331Z,7.40
2019-02-24T12:19:38.674Z,6.95
2019-02-24T12:22:05.935Z,6.15
2019-02-24T12:24:33.221Z,6.30
2019-02-24T12:27:00.534Z,6.75
2019-02-24T12:29:27.848Z,6.75
2019-02-24T12:31:56.814Z,5.97
2019-02-24T12:34:24.142Z,6.53
2019-02-24T12:36:51.429Z,6.83
2019-02-24T12:39:18.737Z,6.15
2019-02-24T12:41:46.034Z,6.53
2019-02-24T12:44:13.316Z,7.25
2019-02-24T12:46:40.629Z,7.40
2019-02-24T12:49:07.920Z,6.75
2019-02-24T12:51:35.210Z,7.28
2019-02-24T12:54:02.519Z,7.30
2019-02-24T12:56:29.809Z,6.20
2019-02-24T12:58:57.119Z,7.67
2019-02-24T13:01:24.410Z,6.90
2019-02-24T13:03:51.721Z,7.30
2019-02-24T13:06:19.009Z,6.10
2019-02-24T13:08:46.301Z,5.58
2019-02-24T13:11:13.620Z,5.92
2019-02-24T13:13:40.931Z,6.45
2019-02-24T13:16:08.247Z,5.50
2019-02-24T13:18:36.814Z,5.65
2019-02-24T13:21:04.220Z,5.90
2019-02-24T13:23:31.539Z,5.65
2019-02-24T13:25:58.822Z,5.30
2019-02-24T13:28:26.136Z,5.75
2019-02-24T13:30:53.430Z,5.45
2019-02-24T13:33:20.746Z,6.28
2019-02-24T13:35:48.170Z,5.37
2019-02-24T13:38:15.494Z,5.78
2019-02-24T13:40:42.805Z,11.53
2019-02-24T13:43:10.101Z,6.35
2019-02-24T13:45:37.422Z,5.65
2019-02-24T13:48:04.740Z,5.95
2019-02-24T13:50:32.067Z,5.58
2019-02-24T13:52:59.357Z,5.80
2019-02-24T13:55:26.678Z,6.53
2019-02-24T13:57:54.007Z,6.25
2019-02-24T14:00:21.589Z,6.67
2019-02-24T14:02:48.869Z,6.55
2019-02-24T14:05:16.198Z,7.33
2019-02-24T14:07:43.496Z,7.15
2019-02-24T14:10:11.659Z,7.17
2019-02-24T14:12:38.967Z,6.28
2019-02-24T14:15:07.828Z,6.15
2019-02-24T14:17:35.104Z,6.40
2019-02-24T14:20:02.439Z,5.42
2019-02-24T14:22:29.722Z,5.35
2019-02-24T14:24:57.020Z,5.17
2019-02-24T14:27:24.320Z,6.33
2019-02-24T14:29:51.609Z,6.15
2019-02-24T14:32:18.908Z,5.50
2019-02-24T14:34:46.237Z,5.90
2019-02-24T14:37:13.602Z,5.65
2019-02-24T14:39:40.958Z,4.62
2019-02-24T14:42:08.283Z,5.28
2019-02-24T14:44:35.579Z,5.30
2019-02-24T14:47:02.894Z,5.85
2019-02-24T14:49:30.185Z,5.75
2019-02-24T14:51:57.518Z,5.80
2019-02-24T14:54:25.676Z,5.72
2019-02-24T14:56:53.024Z,5.50
2019-02-24T14:59:20.337Z,5.50
2019-02-24T15:01:47.626Z,5.40
2019-02-24T15:04:14.942Z,5.67
2019-02-24T15:06:42.233Z,5.73
2019-02-24T15:09:09.527Z,5.03
2019-02-24T15:11:36.839Z,4.87
2019-02-24T15:14:04.122Z,5.20
2019-02-24T15:16:31.437Z,5.53
2019-02-24T15:18:58.735Z,5.63
2019-02-24T15:21:26.050Z,5.33
2019-02-24T15:23:53.338Z,5.40
2019-02-24T15:26:20.656Z,4.57
2019-02-24T15:28:47.985Z,5.60
2019-02-24T15:31:15.275Z,4.80
2019-02-24T15:33:42.573Z,5.30
2019-02-24T15:36:09.866Z,5.30
2019-02-24T15:38:37.187Z,4.87
2019-02-24T15:41:04.477Z,4.90
2019-02-24T15:43:31.759Z,4.70
2019-02-24T15:45:59.065Z,5.30
2019-02-24T15:48:26.355Z,5.53
2019-02-24T15:50:53.652Z,5.10
2019-02-24T15:53:20.949Z,5.83
2019-02-24T15:55:48.261Z,5.33
2019-02-24T15:58:15.580Z,5.33
2019-02-24T16:00:42.864Z,5.10
2019-02-24T16:03:10.174Z,6.33
2019-02-24T16:05:37.455Z,6.10
2019-02-24T16:08:04.794Z,5.50
2019-02-24T16:10:32.076Z,6.08
2019-02-24T16:12:59.373Z,5.85
2019-02-24T16:15:27.353Z,5.70
2019-02-24T16:17:54.667Z,5.80
2019-02-24T16:20:31.889Z,6.65
2019-02-24T16:22:59.199Z,6.72
2019-02-24T16:25:26.497Z,6.78
2019-02-24T16:27:53.978Z,6.22
2019-02-24T16:30:21.275Z,6.90
2019-02-24T16:32:48.568Z,6.92
2019-02-24T16:35:16.453Z,6.17
2019-02-24T16:37:43.740Z,6.28
2019-02-24T16:40:12.672Z,7.05
2019-02-24T16:42:39.991Z,6.87
2019-02-24T16:45:08.964Z,10.63
2019-02-24T16:47:36.306Z,10.40
2019-02-24T16:50:04.653Z,7.92
2019-02-24T16:52:31.939Z,8.30
2019-02-24T16:54:59.259Z,7.92
2019-02-24T16:57:26.553Z,9.65
2019-02-24T16:59:53.852Z,7.58
2019-02-24T17:02:23.055Z,9.35
2019-02-24T17:04:50.102Z,9.50
2019-02-24T17:07:17.430Z,12.95
2019-02-24T17:09:44.714Z,12.03
2019-02-24T17:12:12.034Z,14.35
2019-02-24T17:14:39.326Z,12.43
2019-02-24T17:17:06.656Z,11.57
2019-02-24T17:19:33.942Z,13.28
2019-02-24T17:22:01.284Z,15.50
2019-02-24T17:24:28.567Z,15.30
2019-02-24T17:26:55.855Z,19.50
2019-02-24T17:29:23.173Z,20.77
2019-02-24T17:31:50.456Z,39.15
2019-02-24T17:34:17.781Z,37.23
2019-02-24T17:36:45.080Z,33.00
2019-02-24T17:39:12.402Z,29.90
2019-02-24T17:41:39.728Z,25.95
2019-02-24T17:44:07.059Z,23.75
2019-02-24T17:46:34.348Z,22.42
2019-02-24T17:49:01.681Z,20.70
2019-02-24T17:51:28.996Z,15.00
2019-02-24T17:53:56.282Z,14.38
2019-02-24T17:56:23.610Z,13.32
2019-02-24T17:58:51.609Z,12.80
2019-02-24T18:01:19.018Z,12.95
2019-02-24T18:03:46.328Z,12.58
2019-02-24T18:06:13.663Z,11.85
2019-02-24T18:08:40.953Z,11.78
2019-02-24T18:11:08.272Z,12.65
2019-02-24T18:13:35.603Z,12.98
2019-02-24T18:16:02.897Z,16.12
2019-02-24T18:18:30.270Z,18.02
2019-02-24T18:20:57.535Z,16.50
2019-02-24T18:23:24.844Z,19.02
2019-02-24T18:25:52.170Z,17.57
2019-02-24T18:28:19.481Z,16.42
2019-02-24T18:30:46.776Z,14.60
2019-02-24T18:33:14.075Z,14.87
2019-02-24T18:35:41.410Z,14.13
2019-02-24T18:38:08.708Z,16.35
2019-02-24T18:40:36.017Z,16.50
2019-02-24T18:43:03.317Z,16.50
2019-02-24T18:45:30.624Z,16.30
2019-02-24T18:47:57.949Z,17.70
2019-02-24T18:50:25.270Z,19.82
2019-02-24T18:52:53.478Z,17.12
2019-02-24T18:55:20.781Z,16.85
2019-02-24T18:57:48.082Z,13.98
2019-02-24T19:00:16.639Z,13.72
2019-02-24T19:02:43.963Z,15.55
2019-02-24T19:05:11.283Z,14.80
2019-02-24T19:07:38.577Z,16.62
2019-02-24T19:10:07.536Z,20.65
2019-02-24T19:12:34.818Z,27.93
2019-02-24T19:15:02.157Z,26.25
2019-02-24T19:17:29.446Z,18.85
2019-02-24T19:19:56.754Z,20.02
2019-02-24T19:22:24.088Z,20.88
2019-02-24T19:24:51.403Z,21.93
2019-02-24T19:27:18.731Z,24.90
2019-02-24T19:29:46.018Z,22.93
2019-02-24T19:32:13.320Z,22.20
2019-02-24T19:34:40.639Z,22.32
2019-02-24T19:37:07.946Z,18.25
2019-02-24T19:39:35.286Z,16.17
2019-02-24T19:42:02.589Z,17.55
2019-02-24T19:44:29.909Z,16.70
2019-02-24T19:46:57.202Z,18.25
2019-02-24T19:49:24.526Z,18.10
2019-02-24T19:51:51.818Z,18.02
2019-02-24T19:54:19.127Z,19.95
2019-02-24T19:56:46.503Z,19.42
2019-02-24T19:59:13.840Z,18.75
2019-02-24T20:01:41.149Z,21.23
2019-02-24T20:04:15.755Z,24.23
2019-02-24T20:06:37.390Z,20.40
2019-02-24T20:09:05.092Z,19.70
2019-02-24T20:11:32.379Z,22.07
2019-02-24T20:13:59.681Z,22.07
2019-02-24T20:16:26.989Z,21.62
2019-02-24T20:18:54.285Z,20.95
2019-02-24T20:21:21.590Z,21.42
2019-02-24T20:23:48.924Z,20.30
2019-02-24T20:26:16.232Z,24.00
2019-02-24T20:28:43.553Z,21.48
2019-02-24T20:31:10.836Z,23.00
2019-02-24T20:33:38.166Z,23.50
2019-02-24T20:36:05.456Z,21.12
2019-02-24T20:38:32.784Z,22.77
2019-02-24T20:41:00.090Z,21.93
2019-02-24T20:43:27.419Z,24.15
2019-02-24T20:45:54.721Z,22.02
2019-02-24T20:48:22.003Z,24.10
2019-02-24T20:50:51.178Z,22.17
2019-02-24T20:53:18.276Z,24.00
2019-02-24T20:55:45.566Z,30.25
2019-02-24T20:58:12.902Z,36.35
2019-02-24T21:00:41.832Z,32.70
2019-02-24T21:03:09.125Z,23.92
2019-02-24T21:05:36.453Z,24.43
2019-02-24T21:08:03.751Z,24.05
2019-02-24T21:10:31.053Z,23.80
2019-02-24T21:12:58.376Z,21.35
2019-02-24T21:15:25.703Z,20.95
2019-02-24T21:17:52.993Z,21.05
2019-02-24T21:20:24.248Z,19.30
2019-02-24T21:22:51.575Z,17.05
2019-02-24T21:25:18.870Z,18.35
2019-02-24T21:27:46.191Z,18.67
2019-02-24T21:30:15.109Z,19.60
2019-02-24T21:32:42.429Z,20.30
2019-02-24T21:35:10.095Z,20.77
2019-02-24T21:37:37.416Z,41.58
2019-02-24T21:40:09.053Z,29.85
2019-02-24T21:42:36.344Z,23.75
2019-02-24T21:45:04.330Z,19.32
2019-02-24T21:47:31.629Z,17.73
2019-02-24T21:49:58.944Z,18.85
2019-02-24T21:52:26.241Z,33.83
2019-02-24T21:54:53.529Z,38.95
2019-02-24T21:57:20.849Z,44.88
2019-02-24T21:59:48.149Z,32.25
2019-02-24T22:02:15.458Z,22.87
2019-02-24T22:04:42.779Z,20.65
2019-02-24T22:07:10.070Z,20.20
2019-02-24T22:09:37.382Z,18.25
2019-02-24T22:12:04.710Z,19.07
2019-02-24T22:14:32.022Z,18.00
2019-02-24T22:16:59.358Z,17.55
2019-02-24T22:19:26.680Z,18.85
2019-02-24T22:21:53.987Z,18.20
2019-02-24T22:24:21.286Z,19.20
2019-02-24T22:26:48.601Z,18.75
2019-02-24T22:29:15.931Z,18.05
2019-02-24T22:31:43.303Z,17.75
2019-02-24T22:34:10.625Z,19.07
2019-02-24T22:36:37.918Z,18.85
2019-02-24T22:39:05.221Z,19.75
2019-02-24T22:41:32.555Z,19.32
2019-02-24T22:43:59.845Z,20.97
2019-02-24T22:46:27.143Z,20.00
2019-02-24T22:48:54.465Z,20.48
2019-02-24T22:51:21.776Z,19.48
2019-02-24T22:53:49.173Z,20.15
2019-02-24T22:56:16.441Z,20.32
2019-02-24T22:58:43.747Z,18.90
2019-02-24T23:01:12.215Z,18.95
2019-02-24T23:03:39.608Z,19.65
2019-02-24T23:06:06.897Z,20.90
2019-02-24T23:08:34.199Z,20.52
2019-02-24T23:11:01.543Z,20.55
2019-02-24T23:13:28.823Z,20.85
2019-02-24T23:15:56.142Z,19.45
2019-02-24T23:18:23.439Z,21.23
2019-02-24T23:20:50.728Z,21.33
2019-02-24T23:23:18.055Z,21.75
2019-02-24T23:25:45.349Z,22.85
2019-02-24T23:28:12.641Z,22.50
2019-02-24T23:30:39.967Z,23.70
2019-02-24T23:33:07.254Z,21.95
2019-02-24T23:35:34.541Z,22.77
2019-02-24T23:38:01.874Z,22.67
2019-02-24T23:40:29.170Z,24.00
2019-02-24T23:42:56.461Z,21.40
2019-02-24T23:45:23.787Z,23.38
2019-02-24T23:47:51.077Z,22.77
2019-02-24T23:50:18.389Z,21.87
2019-02-24T23:52:45.707Z,22.80
2019-02-24T23:55:13.036Z,22.20
2019-02-24T23:57:40.346Z,21.55
